Time;durP1;ratioP1;P1;durP2;ratioP2;P2;SDS_P1;SDS_P2;PMS_P1;PMS_P2;Temp;Humidity;BMP_temperature;BMP_pressure;BME280_temperature;BME280_humidity;BME280_pressure;Samples;Min_cycle;Max_cycle;Signal;HPM_P1;HPM_P2
2023/08/24 00:02:10;;;;;;;41.90;40.10;;;;;;;15.22;100.00;101861.06;5042267;28;20814;-43
2023/08/24 00:04:38;;;;;;;39.57;37.77;;;;;;;15.22;100.00;101855.69;5028759;28;20975;-44
2023/08/24 00:07:06;;;;;;;44.93;42.73;;;;;;;15.20;100.00;101854.22;5035053;28;20712;-42
2023/08/24 00:09:33;;;;;;;41.77;39.77;;;;;;;15.17;100.00;101846.56;5030459;28;20939;-44
2023/08/24 00:12:02;;;;;;;45.93;43.77;;;;;;;15.15;100.00;101843.22;5037114;28;20831;-42
2023/08/24 00:14:30;;;;;;;44.77;42.60;;;;;;;15.11;100.00;101840.13;5035568;28;20986;-42
2023/08/24 00:16:58;;;;;;;45.73;43.73;;;;;;;15.09;100.00;101850.22;5035338;28;20475;-42
2023/08/24 00:19:26;;;;;;;46.07;43.57;;;;;;;15.07;100.00;101838.88;5035615;28;20448;-42
2023/08/24 00:21:53;;;;;;;45.93;44.03;;;;;;;15.07;100.00;101843.41;5035832;28;20455;-43
2023/08/24 00:24:21;;;;;;;46.70;44.67;;;;;;;15.07;100.00;101835.34;5037416;28;20475;-42
2023/08/24 00:26:48;;;;;;;49.43;46.83;;;;;;;15.05;100.00;101840.94;5029843;28;20440;-42
2023/08/24 00:29:18;;;;;;;45.17;42.93;;;;;;;15.06;100.00;101836.38;5033379;28;20450;-42
2023/08/24 00:31:45;;;;;;;45.00;43.00;;;;;;;15.01;100.00;101831.59;5030305;28;20439;-44
2023/08/24 00:34:13;;;;;;;46.67;44.63;;;;;;;15.02;100.00;101832.44;5038594;28;20463;-42
2023/08/24 00:36:40;;;;;;;46.00;44.00;;;;;;;14.99;100.00;101838.22;5047233;28;20956;-42
2023/08/24 00:39:08;;;;;;;49.00;47.00;;;;;;;14.99;100.00;101839.03;5039833;28;20442;-42
2023/08/24 00:41:36;;;;;;;48.50;46.33;;;;;;;14.96;100.00;101834.06;5032566;28;20523;-42
2023/08/24 00:44:04;;;;;;;48.27;46.07;;;;;;;14.98;100.00;101841.91;5027598;28;21017;-43
2023/08/24 00:46:33;;;;;;;49.30;47.10;;;;;;;14.97;100.00;101838.41;5043437;28;20447;-42
2023/08/24 00:49:01;;;;;;;53.00;50.70;;;;;;;14.96;100.00;101848.31;5039294;28;20983;-48
2023/08/24 00:51:29;;;;;;;52.83;50.63;;;;;;;14.97;100.00;101841.06;5042098;28;20601;-43
2023/08/24 00:53:57;;;;;;;51.70;49.10;;;;;;;14.92;100.00;101843.53;5043593;28;20550;-43
2023/08/24 00:56:25;;;;;;;47.90;45.70;;;;;;;14.91;100.00;101842.72;5045254;28;20848;-42
2023/08/24 00:58:55;;;;;;;53.03;50.63;;;;;;;14.89;100.00;101846.63;5044252;28;20462;-43
2023/08/24 01:01:24;;;;;;;48.77;46.53;;;;;;;14.85;100.00;101845.34;5043871;28;20450;-44
2023/08/24 01:03:53;;;;;;;49.47;46.83;;;;;;;14.81;100.00;101839.53;5040451;28;20830;-43
2023/08/24 01:06:22;;;;;;;49.20;47.10;;;;;;;14.78;100.00;101839.94;5042234;28;20451;-43
2023/08/24 01:08:50;;;;;;;50.00;48.00;;;;;;;14.75;100.00;101843.03;5044313;28;20447;-42
2023/08/24 01:11:27;;;;;;;51.10;49.10;;;;;;;14.71;100.00;101844.44;5046585;28;20467;-41
2023/08/24 01:14:05;;;;;;;52.37;49.97;;;;;;;14.70;100.00;101844.63;5043865;28;20470;-42
2023/08/24 01:16:40;;;;;;;48.63;46.63;;;;;;;14.66;100.00;101836.16;5043018;28;20550;-43
2023/08/24 01:19:23;;;;;;;49.87;47.77;;;;;;;14.64;100.00;101834.69;5046068;28;20458;-43
2023/08/24 01:21:51;;;;;;;51.03;49.03;;;;;;;14.62;100.00;101839.44;5042869;28;20946;-43
2023/08/24 01:24:39;;;;;;;56.53;53.97;;;;;;;14.60;100.00;101836.13;5040283;28;20474;-42
2023/08/24 01:27:10;;;;;;;52.33;50.20;;;;;;;14.58;100.00;101832.78;5046095;28;20517;-42
2023/08/24 01:29:40;;;;;;;53.03;50.93;;;;;;;14.57;100.00;101831.13;5046746;28;20493;-42
2023/08/24 01:32:11;;;;;;;53.00;51.00;;;;;;;14.55;100.00;101836.69;5033689;28;20463;-43
2023/08/24 01:34:39;;;;;;;56.37;54.07;;;;;;;14.55;100.00;101850.09;5035298;28;20468;-42
2023/08/24 01:37:07;;;;;;;52.80;50.70;;;;;;;14.54;100.00;101840.41;5046295;28;20466;-42
2023/08/24 01:39:43;;;;;;;52.17;50.17;;;;;;;14.52;100.00;101845.13;5038718;28;20427;-44
2023/08/24 01:42:17;;;;;;;51.40;49.43;;;;;;;14.48;100.00;101843.88;5037543;28;20498;-42
2023/08/24 01:44:50;;;;;;;49.97;48.07;;;;;;;14.44;100.00;101850.66;5037536;28;20682;-42
2023/08/24 01:47:19;;;;;;;51.03;49.03;;;;;;;14.39;100.00;101845.84;5043079;28;20454;-45
2023/08/24 01:49:47;;;;;;;49.30;47.30;;;;;;;14.33;100.00;101841.28;5048262;28;20522;-42
2023/08/24 01:52:15;;;;;;;51.23;49.27;;;;;;;14.28;100.00;101845.53;5049627;28;20799;-43
2023/08/24 01:54:44;;;;;;;51.63;49.63;;;;;;;14.23;100.00;101839.94;5047960;28;20468;-42
2023/08/24 01:57:13;;;;;;;51.23;49.33;;;;;;;14.19;100.00;101847.53;5051199;28;20443;-45
2023/08/24 01:59:41;;;;;;;51.47;49.33;;;;;;;14.18;100.00;101837.00;5050218;28;20443;-41
2023/08/24 02:02:09;;;;;;;50.07;48.27;;;;;;;14.15;100.00;101834.72;5049283;28;20486;-43
2023/08/24 02:04:37;;;;;;;50.73;48.83;;;;;;;14.11;100.00;101826.22;5046527;28;20465;-41
2023/08/24 02:07:04;;;;;;;48.87;47.03;;;;;;;14.11;100.00;101830.75;5046342;28;20455;-43
2023/08/24 02:09:32;;;;;;;51.80;49.70;;;;;;;14.08;100.00;101839.16;5051512;28;20512;-42
2023/08/24 02:12:00;;;;;;;51.37;49.27;;;;;;;14.06;100.00;101827.81;5049741;28;20451;-43
2023/08/24 02:14:29;;;;;;;51.20;49.20;;;;;;;14.07;100.00;101837.50;5041461;28;20465;-42
2023/08/24 02:16:56;;;;;;;48.67;46.77;;;;;;;14.06;100.00;101828.66;5051133;28;20940;-41
2023/08/24 02:19:24;;;;;;;52.33;50.33;;;;;;;14.06;100.00;101831.34;5041245;28;20492;-43
2023/08/24 02:21:52;;;;;;;54.37;52.27;;;;;;;14.04;100.00;101827.16;5033004;28;20442;-42
2023/08/24 02:24:19;;;;;;;53.03;50.87;;;;;;;14.01;100.00;101828.38;5045303;28;21001;-46
2023/08/24 02:26:47;;;;;;;54.90;52.70;;;;;;;13.99;100.00;101830.44;5040897;28;20471;-46
2023/08/24 02:29:15;;;;;;;52.17;50.00;;;;;;;13.95;100.00;101839.06;5051154;28;20458;-42
2023/08/24 02:31:44;;;;;;;56.00;53.70;;;;;;;13.94;100.00;101829.34;5033025;28;20519;-42
2023/08/24 02:34:11;;;;;;;55.17;52.87;;;;;;;13.90;100.00;101831.59;5037371;28;20551;-43
2023/08/24 02:36:39;;;;;;;54.37;52.20;;;;;;;13.85;100.00;101837.53;5046830;28;20471;-44
2023/08/24 02:39:07;;;;;;;55.40;52.90;;;;;;;13.84;100.00;101835.03;5049594;28;20439;-42
2023/08/24 02:41:35;;;;;;;50.80;48.80;;;;;;;13.80;100.00;101826.53;5040775;28;20446;-45
2023/08/24 02:44:03;;;;;;;55.43;53.13;;;;;;;13.77;100.00;101824.22;5040454;28;20553;-46
2023/08/24 02:46:31;;;;;;;54.67;52.03;;;;;;;13.74;100.00;101813.06;5040947;28;21194;-45
2023/08/24 02:49:00;;;;;;;57.20;54.80;;;;;;;13.70;100.00;101815.31;5032882;28;20442;-44
2023/08/24 02:51:27;;;;;;;46.20;44.40;;;;;;;13.68;100.00;101811.97;5040733;28;20837;-43
2023/08/24 02:53:55;;;;;;;49.63;47.63;;;;;;;13.64;100.00;101813.41;5032051;28;20491;-46
2023/08/24 02:56:22;;;;;;;52.00;49.90;;;;;;;13.63;100.00;101817.09;5049069;28;20456;-45
2023/08/24 02:58:50;;;;;;;52.03;49.93;;;;;;;13.61;100.00;101819.13;5031740;28;20468;-42
2023/08/24 03:01:18;;;;;;;49.57;47.77;;;;;;;13.59;100.00;101821.16;5033402;28;20509;-45
2023/08/24 03:03:45;;;;;;;57.47;55.10;;;;;;;13.59;100.00;101818.47;5033259;28;20462;-43
2023/08/24 03:06:14;;;;;;;54.77;52.47;;;;;;;13.59;100.00;101815.00;5028767;28;20503;-42
2023/08/24 03:08:42;;;;;;;58.40;55.83;;;;;;;13.59;100.00;101818.47;5045192;28;20439;-41
2023/08/24 03:11:10;;;;;;;54.43;52.33;;;;;;;13.60;100.00;101808.59;5048740;28;20435;-45
2023/08/24 03:13:38;;;;;;;54.00;51.80;;;;;;;13.60;100.00;101798.69;5032756;28;21190;-42
2023/08/24 03:16:07;;;;;;;58.20;55.40;;;;;;;13.60;100.00;101809.44;5028794;28;20435;-44
2023/08/24 03:18:36;;;;;;;63.10;59.93;;;;;;;13.62;100.00;101811.94;5036257;28;20441;-42
2023/08/24 03:21:04;;;;;;;59.53;56.53;;;;;;;13.64;100.00;101815.25;5037154;28;20474;-42
2023/08/24 03:23:33;;;;;;;61.07;58.20;;;;;;;13.66;100.00;101810.50;5044670;28;20534;-42
2023/08/24 03:26:01;;;;;;;59.67;56.73;;;;;;;13.66;100.00;101813.19;5029373;28;20468;-43
2023/08/24 03:28:29;;;;;;;57.00;54.27;;;;;;;13.67;100.00;101806.81;5035265;28;21034;-45
2023/08/24 03:30:56;;;;;;;57.50;54.87;;;;;;;13.65;100.00;101807.00;5041059;28;20787;-43
2023/08/24 03:33:24;;;;;;;60.87;57.83;;;;;;;13.62;100.00;101804.69;5047818;28;20494;-43
2023/08/24 03:35:52;;;;;;;60.70;57.20;;;;;;;13.63;100.00;101806.38;5031684;28;20442;-46
2023/08/24 03:38:19;;;;;;;60.77;57.50;;;;;;;13.62;100.00;101801.22;5042978;28;20466;-42
2023/08/24 03:40:48;;;;;;;63.30;59.37;;;;;;;13.61;100.00;101794.19;5039393;28;20989;-44
2023/08/24 03:43:16;;;;;;;63.97;59.97;;;;;;;13.60;100.00;101795.19;5027286;28;20467;-41
2023/08/24 03:45:44;;;;;;;67.33;62.93;;;;;;;13.61;100.00;101791.50;5028604;28;20468;-42
2023/08/24 03:48:12;;;;;;;64.13;60.67;;;;;;;13.60;100.00;101787.97;5036770;28;20432;-45
2023/08/24 03:50:39;;;;;;;68.27;64.00;;;;;;;13.61;100.00;101783.47;5054255;28;20435;-46
2023/08/24 03:53:07;;;;;;;61.47;57.80;;;;;;;13.61;100.00;101784.28;5028426;28;21185;-42
2023/08/24 03:55:35;;;;;;;58.37;55.67;;;;;;;13.62;100.00;101782.44;5029100;28;20551;-42
2023/08/24 03:58:04;;;;;;;63.43;60.93;;;;;;;13.62;100.00;101782.44;5036533;28;20506;-43
2023/08/24 04:00:32;;;;;;;59.07;56.67;;;;;;;13.62;100.00;101791.28;5037008;28;20523;-43
2023/08/24 04:02:59;;;;;;;55.43;53.33;;;;;;;13.64;100.00;101794.63;5027536;28;20551;-42
2023/08/24 04:05:27;;;;;;;64.53;60.70;;;;;;;13.66;100.00;101797.94;5035373;28;20459;-43
2023/08/24 04:07:55;;;;;;;60.13;57.20;;;;;;;13.66;100.00;101800.63;5048427;28;20439;-43
2023/08/24 04:10:23;;;;;;;54.70;52.70;;;;;;;13.66;100.00;101797.94;5027751;28;20451;-42
2023/08/24 04:12:50;;;;;;;57.33;55.23;;;;;;;13.67;100.00;101804.97;5045447;28;20467;-41
2023/08/24 04:15:20;;;;;;;52.03;50.03;;;;;;;13.69;100.00;101799.41;5040462;28;20471;-42
2023/08/24 04:17:47;;;;;;;45.67;43.97;;;;;;;13.70;100.00;101801.91;5039951;28;20472;-44
2023/08/24 04:20:16;;;;;;;50.67;48.57;;;;;;;13.69;100.00;101792.19;5029330;28;20436;-43
2023/08/24 04:22:44;;;;;;;55.93;53.53;;;;;;;13.74;100.00;101795.13;5043809;28;20455;-42
2023/08/24 04:25:11;;;;;;;56.60;53.67;;;;;;;13.75;100.00;101783.41;5035367;28;20456;-42
2023/08/24 04:27:39;;;;;;;51.67;49.47;;;;;;;13.78;100.00;101791.06;5028020;28;20511;-42
2023/08/24 04:30:11;;;;;;;51.97;50.00;;;;;;;13.83;100.00;101787.78;5044139;28;20431;-43
2023/08/24 04:32:40;;;;;;;52.83;50.63;;;;;;;13.88;100.00;101789.91;5034970;28;20542;-44
2023/08/24 04:35:10;;;;;;;51.93;49.83;;;;;;;13.91;100.00;101790.34;5047296;28;20990;-41
2023/08/24 04:37:38;;;;;;;48.30;46.40;;;;;;;14.00;100.00;101796.41;5032569;28;20432;-41
2023/08/24 04:40:07;;;;;;;44.90;43.03;;;;;;;14.05;100.00;101786.75;5047782;28;20519;-45
2023/08/24 04:42:35;;;;;;;46.90;45.10;;;;;;;14.12;100.00;101794.84;5046969;28;20534;-42
2023/08/24 04:45:03;;;;;;;41.83;40.23;;;;;;;14.17;100.00;101795.09;5030856;28;20933;-43
2023/08/24 04:47:31;;;;;;;44.70;42.80;;;;;;;14.23;100.00;101794.31;5040526;28;20494;-41
2023/08/24 04:50:00;;;;;;;42.17;40.43;;;;;;;14.26;100.00;101797.44;5039016;28;20436;-43
2023/08/24 04:52:28;;;;;;;40.10;38.50;;;;;;;14.30;100.00;101796.03;5048867;28;20867;-41
2023/08/24 04:54:56;;;;;;;40.20;38.30;;;;;;;14.37;100.00;101788.88;5045769;28;21012;-41
2023/08/24 04:57:24;;;;;;;36.30;34.97;;;;;;;14.46;100.00;101789.56;5041655;28;20463;-42
2023/08/24 04:59:52;;;;;;;38.73;37.23;;;;;;;14.56;100.00;101799.94;5039616;28;20839;-42
2023/08/24 05:02:20;;;;;;;33.67;32.20;;;;;;;14.64;100.00;101794.41;5039283;28;20524;-45
2023/08/24 05:04:48;;;;;;;35.97;34.57;;;;;;;14.78;100.00;101796.16;5039854;28;20479;-43
2023/08/24 05:07:17;;;;;;;34.20;33.00;;;;;;;14.88;100.00;101801.97;5043271;28;20569;-46
2023/08/24 05:09:45;;;;;;;34.00;32.70;;;;;;;14.97;100.00;101806.16;5035477;28;20444;-46
2023/08/24 05:12:13;;;;;;;31.40;30.30;;;;;;;15.11;100.00;101804.38;5039254;28;20451;-48
2023/08/24 05:14:41;;;;;;;31.93;30.00;;;;;;;15.18;100.00;101799.84;5039270;28;20475;-49
2023/08/24 05:17:09;;;;;;;29.70;28.50;;;;;;;15.33;100.00;101801.34;5052432;28;20497;-44
2023/08/24 05:19:36;;;;;;;30.60;28.60;;;;;;;15.56;100.00;101792.16;5038654;28;20463;-46
2023/08/24 05:22:04;;;;;;;32.53;29.17;;;;;;;15.69;100.00;101803.75;5033218;28;20573;-41
2023/08/24 05:24:33;;;;;;;30.60;27.70;;;;;;;15.77;100.00;101798.16;5050879;28;20528;-44
2023/08/24 05:27:01;;;;;;;26.87;25.47;;;;;;;15.91;100.00;101796.34;5033300;28;20485;-43
2023/08/24 05:29:28;;;;;;;37.67;27.20;;;;;;;16.10;100.00;101808.94;5039361;28;20450;-41
2023/08/24 05:31:56;;;;;;;27.30;25.90;;;;;;;16.32;100.00;101804.19;5048646;28;20497;-44
2023/08/24 05:34:24;;;;;;;26.30;24.80;;;;;;;16.57;100.00;101799.84;5052439;28;20490;-41
2023/08/24 05:36:51;;;;;;;24.20;23.37;;;;;;;16.77;100.00;101806.00;5042610;28;20563;-45
2023/08/24 05:39:19;;;;;;;24.40;23.50;;;;;;;17.10;100.00;101806.72;5039061;28;20975;-41
2023/08/24 05:41:51;;;;;;;25.43;24.23;;;;;;;17.49;100.00;101802.19;5047995;28;20435;-41
2023/08/24 05:44:19;;;;;;;25.50;24.20;;;;;;;17.93;100.00;101793.19;5042879;28;20490;-43
2023/08/24 05:46:47;;;;;;;25.70;24.70;;;;;;;18.29;100.00;101784.38;5044296;28;20515;-41
2023/08/24 05:49:15;;;;;;;24.97;24.07;;;;;;;18.84;100.00;101791.53;5042044;28;20450;-42
2023/08/24 05:51:42;;;;;;;27.93;26.83;;;;;;;19.29;100.00;101787.38;5052255;28;20431;-41
2023/08/24 05:54:10;;;;;;;26.60;25.50;;;;;;;20.05;100.00;101788.59;5047662;28;20545;-42
2023/08/24 05:56:38;;;;;;;25.73;24.73;;;;;;;20.83;100.00;101781.75;5047051;28;20429;-41
2023/08/24 05:59:07;;;;;;;24.50;23.40;;;;;;;22.01;100.00;101783.78;5051174;28;20879;-44
2023/08/24 06:01:38;;;;;;;23.80;22.90;;;;;;;22.83;100.00;101770.28;5051201;28;20488;-45
2023/08/24 06:04:06;;;;;;;24.60;23.73;;;;;;;23.63;100.00;101771.22;5041437;28;21161;-45
2023/08/24 06:06:33;;;;;;;24.07;22.90;;;;;;;24.44;100.00;101762.84;5050176;28;20427;-46
2023/08/24 06:09:04;;;;;;;23.00;21.90;;;;;;;24.92;100.00;101757.13;5043715;28;20497;-42
2023/08/24 06:11:31;;;;;;;22.37;21.57;;;;;;;25.43;100.00;101746.34;5042190;28;20436;-42
2023/08/24 06:13:59;;;;;;;20.03;19.13;;;;;;;26.13;100.00;101738.19;5050912;28;20868;-42
2023/08/24 06:16:28;;;;;;;15.93;15.43;;;;;;;26.64;100.00;101746.28;5041514;28;20546;-43
2023/08/24 06:18:56;;;;;;;13.30;12.73;;;;;;;27.27;100.00;101733.66;5051714;28;20430;-42
2023/08/24 06:21:24;;;;;;;12.33;11.83;;;;;;;27.64;100.00;101738.63;5051444;28;20435;-43
2023/08/24 06:23:52;;;;;;;11.63;11.07;;;;;;;28.10;95.14;101747.28;5047661;28;20497;-47
2023/08/24 06:26:20;;;;;;;8.27;7.87;;;;;;;28.45;93.58;101742.25;5050481;28;20453;-42
2023/08/24 06:28:48;;;;;;;9.57;8.87;;;;;;;28.70;91.97;101737.59;5051088;28;21034;-49
2023/08/24 06:31:16;;;;;;;8.30;7.80;;;;;;;28.77;87.61;101747.09;5038593;28;20196;-47
2023/08/24 06:33:45;;;;;;;7.33;6.97;;;;;;;29.37;84.33;101741.91;5046861;28;20742;-43
2023/08/24 06:36:13;;;;;;;7.10;6.73;;;;;;;29.43;77.48;101735.22;5041922;28;20612;-44
2023/08/24 06:38:40;;;;;;;6.60;6.30;;;;;;;29.77;81.45;101732.19;5050718;28;20267;-46
2023/08/24 06:41:11;;;;;;;5.47;5.17;;;;;;;29.89;73.54;101740.81;5048577;28;20210;-44
2023/08/24 06:43:39;;;;;;;6.47;5.57;;;;;;;30.18;74.40;101733.13;5037250;28;20315;-47
2023/08/24 06:46:07;;;;;;;5.87;5.47;;;;;;;30.23;70.51;101732.22;5050018;28;20287;-44
2023/08/24 06:48:35;;;;;;;5.43;5.10;;;;;;;30.36;68.80;101729.47;5045248;28;20220;-42
2023/08/24 06:51:05;;;;;;;6.32;5.82;;;;;;;30.27;69.28;101734.03;5039657;28;20195;-42
2023/08/24 06:53:32;;;;;;;6.00;5.50;;;;;;;30.61;69.15;101728.16;5045195;28;20342;-42
2023/08/24 06:56:00;;;;;;;5.80;5.40;;;;;;;30.62;65.30;101722.34;5038469;28;20566;-42
2023/08/24 06:58:28;;;;;;;5.50;5.20;;;;;;;30.73;63.85;101719.38;5051152;28;20219;-41
2023/08/24 07:00:56;;;;;;;5.47;5.00;;;;;;;30.78;65.86;101714.59;5050460;28;20673;-42
2023/08/24 07:03:23;;;;;;;6.55;6.05;;;;;;;30.63;63.37;101709.41;5041458;28;20220;-45
2023/08/24 07:05:51;;;;;;;9.60;5.38;;;;;;;30.68;64.68;101703.78;5052127;28;20234;-43
2023/08/24 07:08:20;;;;;;;7.45;4.75;;;;;;;30.63;62.65;101701.97;5049270;28;20212;-43
2023/08/24 07:10:48;;;;;;;6.88;5.63;;;;;;;30.47;62.94;101708.91;5042497;28;20224;-42
2023/08/24 07:13:16;;;;;;;4.47;4.07;;;;;;;30.47;63.73;101708.06;5039874;28;20286;-44
2023/08/24 07:15:45;;;;;;;4.70;4.30;;;;;;;30.58;65.33;101704.84;5050343;28;20207;-41
2023/08/24 07:18:13;;;;;;;4.45;4.15;;;;;;;30.21;55.79;101698.66;5039321;28;20236;-46
2023/08/24 07:20:40;;;;;;;5.40;4.90;;;;;;;29.70;59.90;101707.81;5044810;28;20283;-42
2023/08/24 07:23:08;;;;;;;5.00;4.60;;;;;;;29.53;62.02;101719.38;5048581;28;20239;-42
2023/08/24 07:25:37;;;;;;;6.00;5.10;;;;;;;29.36;64.23;101712.81;5050032;28;20247;-45
2023/08/24 07:28:06;;;;;;;5.20;4.83;;;;;;;29.13;65.46;101706.22;5048955;28;20307;-42
2023/08/24 07:30:34;;;;;;;5.70;5.33;;;;;;;28.95;65.35;101707.03;5044113;28;20192;-43
2023/08/24 07:33:03;;;;;;;5.60;5.30;;;;;;;28.63;65.08;101706.91;5049229;28;20208;-41
2023/08/24 07:35:31;;;;;;;5.67;5.17;;;;;;;28.32;67.32;101710.00;5049996;28;20632;-44
2023/08/24 07:37:59;;;;;;;5.30;4.90;;;;;;;28.01;67.65;101715.00;5040623;28;20699;-42
2023/08/24 07:40:27;;;;;;;7.80;5.73;;;;;;;27.34;71.56;101710.31;5048940;28;20238;-43
2023/08/24 07:42:57;;;;;;;5.73;5.33;;;;;;;27.21;75.39;101716.44;5049310;28;20291;-42
2023/08/24 07:45:25;;;;;;;5.47;5.00;;;;;;;26.68;79.37;101709.03;5041089;28;20635;-43
2023/08/24 07:47:53;;;;;;;5.50;4.93;;;;;;;26.55;81.96;101702.25;5048841;28;20497;-43
2023/08/24 07:50:23;;;;;;;6.03;5.53;;;;;;;26.22;82.77;101705.66;5048560;28;20911;-42
2023/08/24 07:52:50;;;;;;;5.10;4.80;;;;;;;25.79;85.50;101709.78;5048861;28;20483;-42
2023/08/24 07:55:22;;;;;;;6.43;4.00;;;;;;;25.01;89.55;101713.75;5049308;28;20908;-41
2023/08/24 07:57:49;;;;;;;5.10;4.63;;;;;;;24.64;97.77;101695.59;5040618;28;20435;-43
2023/08/24 08:00:20;;;;;;;5.23;4.87;;;;;;;24.66;100.00;101704.34;5041132;28;20625;-42
2023/08/24 08:02:50;;;;;;;4.50;4.07;;;;;;;24.40;100.00;101715.41;5040961;28;20775;-44
2023/08/24 08:05:18;;;;;;;4.40;4.03;;;;;;;24.73;100.00;101718.53;5048494;28;20474;-41
2023/08/24 08:07:46;;;;;;;4.40;4.10;;;;;;;24.60;100.00;101704.59;5048799;28;21148;-42
2023/08/24 08:10:15;;;;;;;4.70;4.27;;;;;;;24.56;100.00;101715.22;5040326;28;20436;-44
2023/08/24 08:12:42;;;;;;;4.57;4.10;;;;;;;24.41;100.00;101717.84;5047927;28;20550;-44
2023/08/24 08:15:10;;;;;;;7.60;5.73;;;;;;;24.33;100.00;101709.38;5047373;28;20459;-42
2023/08/24 08:17:39;;;;;;;3.70;3.40;;;;;;;24.47;99.59;101708.63;5047964;28;21195;-42
2023/08/24 08:20:08;;;;;;;3.50;3.20;;;;;;;24.43;99.30;101698.53;5039791;28;20521;-42
2023/08/24 08:22:38;;;;;;;4.70;4.20;;;;;;;24.77;95.72;101710.66;5045701;28;20505;-44
2023/08/24 08:25:07;;;;;;;10.50;4.93;;;;;;;24.74;95.20;101711.19;5047880;28;20467;-41
2023/08/24 08:27:34;;;;;;;4.03;3.10;;;;;;;24.51;91.61;101704.28;5039966;28;20530;-43
2023/08/24 08:30:02;;;;;;;4.30;3.10;;;;;;;24.18;90.41;101699.19;5047724;28;20474;-41
2023/08/24 08:32:31;;;;;;;5.17;3.40;;;;;;;24.05;88.04;101700.44;5048030;28;20455;-41
2023/08/24 08:35:01;;;;;;;3.63;3.33;;;;;;;24.11;93.08;101701.31;5047414;28;21004;-40
2023/08/24 08:37:28;;;;;;;12.97;4.27;;;;;;;24.58;90.66;101706.78;5039676;28;21307;-42
2023/08/24 08:39:56;;;;;;;3.47;3.20;;;;;;;24.56;88.86;101700.75;5039346;28;20423;-45
2023/08/24 08:42:24;;;;;;;4.50;3.90;;;;;;;24.69;91.24;101698.38;5047513;28;20450;-43
2023/08/24 08:44:55;;;;;;;8.13;4.10;;;;;;;24.65;88.60;101689.06;5047573;28;20817;-42
2023/08/24 08:47:23;;;;;;;4.00;3.60;;;;;;;24.62;84.16;101686.88;5048893;28;20431;-43
2023/08/24 08:49:52;;;;;;;3.27;3.00;;;;;;;24.27;82.31;101686.72;5039875;28;20484;-42
2023/08/24 08:52:22;;;;;;;2.93;2.73;;;;;;;24.30;82.34;101688.09;5044792;28;20539;-41
2023/08/24 08:54:49;;;;;;;4.60;3.30;;;;;;;24.55;84.53;101699.91;5042770;28;20463;-44
2023/08/24 08:57:20;;;;;;;3.23;2.97;;;;;;;24.57;85.27;101689.59;5045319;28;20470;-43
2023/08/24 08:59:49;;;;;;;3.30;3.00;;;;;;;24.95;82.94;101684.81;5042884;28;20431;-42
2023/08/24 09:02:20;;;;;;;4.40;3.33;;;;;;;24.42;84.91;101681.34;5038838;28;20459;-43
2023/08/24 09:04:51;;;;;;;3.00;2.80;;;;;;;24.47;85.02;101681.34;5039000;28;20459;-45
2023/08/24 09:07:20;;;;;;;8.73;4.23;;;;;;;24.21;81.71;101674.97;5036600;28;20442;-45
2023/08/24 09:09:50;;;;;;;2.67;2.43;;;;;;;24.50;85.99;101671.81;5042980;28;20466;-43
2023/08/24 09:12:18;;;;;;;2.77;2.57;;;;;;;24.88;81.59;101667.91;5047118;28;20457;-43
2023/08/24 09:14:45;;;;;;;3.60;3.07;;;;;;;24.46;83.34;101670.72;5038479;28;20465;-46
2023/08/24 09:17:20;;;;;;;2.60;2.50;;;;;;;23.87;82.53;101662.72;5046156;28;20624;-44
2023/08/24 09:19:50;;;;;;;4.03;2.80;;;;;;;23.97;82.10;101665.53;5033733;28;20430;-42
2023/08/24 09:22:18;;;;;;;3.00;2.60;;;;;;;24.02;84.06;101665.53;5045164;28;20530;-44
2023/08/24 09:24:51;;;;;;;4.30;3.37;;;;;;;24.23;83.99;101663.78;5039326;28;20493;-43
2023/08/24 09:27:20;;;;;;;2.93;2.70;;;;;;;24.07;81.52;101673.75;5039479;28;20427;-43
2023/08/24 09:29:50;;;;;;;2.67;2.50;;;;;;;23.91;82.77;101666.56;5047468;28;20557;-45
2023/08/24 09:32:23;;;;;;;4.57;2.33;;;;;;;23.57;83.55;101673.41;5046842;28;20454;-42
2023/08/24 09:34:52;;;;;;;2.63;2.43;;;;;;;23.61;85.07;101669.91;5046986;28;20537;-41
2023/08/24 09:37:20;;;;;;;2.93;2.60;;;;;;;24.10;85.97;101656.06;5047811;28;20952;-41
2023/08/24 09:39:48;;;;;;;3.60;3.40;;;;;;;24.33;83.76;101666.56;5047622;28;20510;-46
2023/08/24 09:42:25;;;;;;;8.10;3.30;;;;;;;24.41;81.74;101674.22;5046755;28;20965;-43
2023/08/24 09:45:04;;;;;;;3.80;3.00;;;;;;;24.69;80.05;101659.34;5047183;28;20886;-42
2023/08/24 09:47:32;;;;;;;2.97;2.80;;;;;;;24.67;78.47;101656.88;5039633;28;20438;-45
2023/08/24 09:50:00;;;;;;;3.10;2.77;;;;;;;24.99;77.12;101647.72;5048162;28;20520;-50
2023/08/24 09:52:32;;;;;;;3.00;2.80;;;;;;;25.48;75.21;101650.75;5046918;28;20451;-47
2023/08/24 09:55:05;;;;;;;5.80;3.10;;;;;;;25.53;72.16;101661.72;5039051;28;20459;-45
2023/08/24 09:57:38;;;;;;;3.00;2.80;;;;;;;25.56;72.98;101663.91;5035238;28;20506;-46
2023/08/24 10:00:10;;;;;;;3.33;3.03;;;;;;;25.77;72.41;101660.88;5042364;28;20989;-49
2023/08/24 10:02:43;;;;;;;2.50;2.30;;;;;;;26.05;71.09;101661.34;5035365;28;20465;-42
2023/08/24 10:05:17;;;;;;;3.03;2.60;;;;;;;26.30;65.18;101659.41;5050154;28;20454;-45
2023/08/24 10:08:07;;;;;;;4.30;2.40;;;;;;;26.44;67.04;101651.41;5042378;28;20523;-42
2023/08/24 10:10:37;;;;;;;3.30;3.00;;;;;;;26.18;63.52;101655.34;5050932;28;20549;-44
2023/08/24 10:13:12;;;;;;;4.27;2.73;;;;;;;26.05;66.82;101647.69;5041996;28;20462;-47
2023/08/24 10:15:46;;;;;;;3.47;3.17;;;;;;;26.15;67.88;101639.50;5050520;28;20439;-45
2023/08/24 10:18:16;;;;;;;3.37;3.17;;;;;;;26.17;68.12;101643.59;5040940;28;20438;-47
2023/08/24 10:20:45;;;;;;;4.30;2.80;;;;;;;26.40;66.54;101642.94;5044061;28;20484;-42
2023/08/24 10:23:15;;;;;;;2.47;2.37;;;;;;;26.63;66.73;101648.88;5049456;28;20454;-42
2023/08/24 10:25:46;;;;;;;2.60;2.50;;;;;;;26.73;61.71;101657.81;5050487;28;20472;-45
2023/08/24 10:28:16;;;;;;;2.97;2.77;;;;;;;27.06;62.79;101656.28;5048857;28;20430;-44
2023/08/24 10:30:45;;;;;;;3.00;2.80;;;;;;;27.41;61.81;101671.66;5043559;28;20478;-42
2023/08/24 10:33:14;;;;;;;3.30;2.50;;;;;;;27.83;62.52;101671.03;5041634;28;20481;-44
2023/08/24 10:35:43;;;;;;;3.20;2.60;;;;;;;27.84;61.62;101658.94;5045810;28;20459;-41
2023/08/24 10:38:23;;;;;;;5.50;2.60;;;;;;;28.25;62.16;101651.13;5046805;28;20626;-43
2023/08/24 10:40:52;;;;;;;4.13;2.67;;;;;;;28.36;60.33;101645.22;5036560;28;20510;-42
2023/08/24 10:43:22;;;;;;;3.20;3.00;;;;;;;28.14;59.60;101639.44;5041444;28;20862;-44
2023/08/24 10:46:00;;;;;;;3.47;3.00;;;;;;;28.23;56.15;101623.16;5043837;28;20446;-43
2023/08/24 10:48:29;;;;;;;9.33;3.00;;;;;;;28.22;57.39;101611.41;5051042;28;20423;-45
2023/08/24 10:51:22;;;;;;;6.40;3.13;;;;;;;28.23;58.41;101599.31;5049850;28;20470;-44
2023/08/24 10:53:54;;;;;;;2.93;2.73;;;;;;;28.21;56.66;101609.75;5041214;28;20550;-42
2023/08/24 10:56:25;;;;;;;2.97;2.77;;;;;;;27.93;55.26;101613.34;5047926;28;20991;-46
2023/08/24 10:59:13;;;;;;;4.40;2.60;;;;;;;27.90;55.89;101611.19;5036476;28;20430;-48
2023/08/24 11:01:42;;;;;;;2.87;2.60;;;;;;;27.68;56.93;101608.16;5041645;28;20484;-43
2023/08/24 11:04:11;;;;;;;2.70;2.50;;;;;;;27.72;55.13;101601.78;5049497;28;20454;-45
2023/08/24 11:06:53;;;;;;;3.30;3.00;;;;;;;27.65;57.49;101611.47;5050212;28;20435;-45
2023/08/24 11:09:21;;;;;;;5.47;2.97;;;;;;;27.52;57.38;101607.47;5049541;28;20441;-42
2023/08/24 11:11:59;;;;;;;3.23;2.53;;;;;;;27.32;55.84;101593.94;5049318;28;20471;-45
2023/08/24 11:14:30;;;;;;;2.90;2.50;;;;;;;27.19;55.76;101597.31;5048995;28;20505;-47
2023/08/24 11:17:00;;;;;;;3.60;3.30;;;;;;;27.28;58.31;101590.94;5042098;28;20493;-46
2023/08/24 11:19:30;;;;;;;3.07;2.87;;;;;;;27.36;58.78;101584.03;5041073;28;21514;-43
2023/08/24 11:21:58;;;;;;;5.60;2.70;;;;;;;27.46;57.79;101573.00;5049631;28;20453;-44